createdAt,value
2019-02-28T00:00:41.508Z,6.54
2019-02-28T00:03:17.461Z,6.51
2019-02-28T00:05:52.916Z,6.47
2019-02-28T00:08:23.427Z,6.51
2019-02-28T00:11:12.439Z,6.60
2019-02-28T00:13:48.907Z,6.67
2019-02-28T00:16:25.295Z,6.76
2019-02-28T00:18:57.504Z,6.87
2019-02-28T00:21:31.688Z,6.92
2019-02-28T00:24:04.742Z,7.02
2019-02-28T00:26:46.268Z,7.12
2019-02-28T00:29:12.746Z,7.17
2019-02-28T00:31:50.791Z,7.27
2019-02-28T00:34:39.346Z,7.33
2019-02-28T00:37:29.751Z,7.38
2019-02-28T00:40:01.710Z,7.40
2019-02-28T00:42:32.911Z,7.45
2019-02-28T00:45:03.781Z,7.51
2019-02-28T00:47:36.003Z,7.52
2019-02-28T00:50:06.145Z,7.60
2019-02-28T00:52:36.312Z,7.76
2019-02-28T00:55:06.713Z,7.76
2019-02-28T00:57:36.972Z,7.76
2019-02-28T01:00:08.445Z,7.74
2019-02-28T01:02:38.767Z,7.82
2019-02-28T01:05:10.726Z,7.83
2019-02-28T01:07:40.827Z,7.82
2019-02-28T01:10:11.978Z,7.81
2019-02-28T01:12:45.074Z,7.85
2019-02-28T01:15:15.402Z,7.85
2019-02-28T01:17:45.553Z,7.91
2019-02-28T01:20:17.504Z,7.90
2019-02-28T01:22:48.847Z,7.88
2019-02-28T01:25:20.505Z,7.93
2019-02-28T01:27:53.456Z,7.93
2019-02-28T01:30:23.592Z,7.94
2019-02-28T01:32:55.541Z,7.93
2019-02-28T01:35:25.714Z,7.89
2019-02-28T01:37:58.908Z,7.92
2019-02-28T01:40:31.382Z,7.89
2019-02-28T01:43:01.491Z,7.92
2019-02-28T01:45:32.596Z,7.99
2019-02-28T01:48:03.133Z,8.00
2019-02-28T01:50:33.851Z,7.94
2019-02-28T01:53:04.124Z,7.89
2019-02-28T01:55:34.266Z,7.87
2019-02-28T01:58:04.375Z,7.85
2019-02-28T02:00:34.504Z,7.86
2019-02-28T02:03:04.586Z,7.83
2019-02-28T02:05:34.736Z,7.79
2019-02-28T02:08:07.597Z,7.72
2019-02-28T02:10:37.762Z,7.71
2019-02-28T02:13:07.896Z,7.78
2019-02-28T02:15:37.989Z,7.72
2019-02-28T02:18:09.432Z,7.71
2019-02-28T02:20:39.892Z,7.74
2019-02-28T02:23:10.012Z,7.73
2019-02-28T02:25:40.124Z,7.71
2019-02-28T02:28:10.346Z,7.64
2019-02-28T02:30:40.464Z,7.67
2019-02-28T02:33:14.428Z,7.62
2019-02-28T02:35:43.653Z,7.61
2019-02-28T02:38:13.741Z,7.62
2019-02-28T02:40:43.836Z,7.63
2019-02-28T02:43:14.027Z,7.63
2019-02-28T02:45:45.588Z,7.59
2019-02-28T02:48:16.042Z,7.60
2019-02-28T02:50:46.654Z,7.53
2019-02-28T02:53:17.974Z,7.52
2019-02-28T02:55:48.083Z,7.53
2019-02-28T02:58:18.210Z,7.52
2019-02-28T03:00:51.182Z,7.44
2019-02-28T03:03:22.342Z,7.49
2019-02-28T03:05:52.454Z,7.48
2019-02-28T03:08:22.571Z,7.50
2019-02-28T03:10:54.790Z,7.49
2019-02-28T03:13:24.911Z,7.48
2019-02-28T03:15:59.320Z,7.41
2019-02-28T03:18:27.830Z,7.41
2019-02-28T03:20:59.052Z,7.42
2019-02-28T03:23:29.168Z,7.44
2019-02-28T03:26:05.284Z,7.36
2019-02-28T03:28:33.396Z,7.33
2019-02-28T03:31:14.124Z,7.25
2019-02-28T03:33:38.611Z,7.25
2019-02-28T03:36:08.714Z,7.25
2019-02-28T03:38:38.859Z,7.23
2019-02-28T03:41:16.052Z,7.27
2019-02-28T03:43:43.778Z,7.27
2019-02-28T03:46:14.502Z,7.24
2019-02-28T03:48:44.581Z,7.30
2019-02-28T03:51:17.661Z,7.25
2019-02-28T03:53:55.541Z,7.24
2019-02-28T03:56:21.026Z,7.18
2019-02-28T03:58:53.863Z,7.22
2019-02-28T04:01:25.728Z,7.20
2019-02-28T04:03:55.993Z,7.20
2019-02-28T04:06:26.258Z,7.19
2019-02-28T04:09:07.028Z,7.20
2019-02-28T04:11:35.059Z,7.19
2019-02-28T04:14:05.953Z,7.17
2019-02-28T04:16:38.472Z,7.16
2019-02-28T04:19:08.642Z,7.12
2019-02-28T04:21:38.805Z,7.07
2019-02-28T04:24:13.817Z,7.10
2019-02-28T04:26:40.741Z,7.07
2019-02-28T04:29:11.431Z,7.03
2019-02-28T04:31:41.710Z,7.02
2019-02-28T04:34:13.352Z,7.03
2019-02-28T04:36:43.676Z,7.04
2019-02-28T04:39:13.783Z,7.02
2019-02-28T04:41:43.923Z,6.97
2019-02-28T04:44:18.307Z,6.97
2019-02-28T04:46:49.517Z,6.93
2019-02-28T04:49:22.744Z,6.91
2019-02-28T04:51:51.460Z,6.96
2019-02-28T04:54:27.888Z,6.98
2019-02-28T04:56:59.243Z,6.92
2019-02-28T04:59:31.606Z,6.90
2019-02-28T05:02:05.418Z,6.88
2019-02-28T05:04:36.121Z,6.84
2019-02-28T05:07:06.931Z,6.82
2019-02-28T05:09:37.148Z,6.84
2019-02-28T05:12:09.680Z,6.76
2019-02-28T05:14:39.955Z,6.76
2019-02-28T05:17:11.934Z,6.80
2019-02-28T05:19:43.153Z,6.80
2019-02-28T05:22:13.389Z,6.74
2019-02-28T05:24:43.797Z,6.68
2019-02-28T05:27:14.005Z,6.67
2019-02-28T05:29:44.833Z,6.67
2019-02-28T05:32:14.981Z,6.61
2019-02-28T05:34:47.433Z,6.56
2019-02-28T05:37:19.394Z,6.57
2019-02-28T05:39:49.718Z,6.56
2019-02-28T05:42:20.310Z,6.57
2019-02-28T05:44:51.688Z,6.56
2019-02-28T05:47:21.849Z,6.55
2019-02-28T05:49:51.912Z,6.49
2019-02-28T05:52:22.025Z,6.56
2019-02-28T05:54:52.114Z,6.57
2019-02-28T05:57:22.245Z,6.45
2019-02-28T05:59:52.603Z,6.43
2019-02-28T06:02:23.559Z,6.41
2019-02-28T06:04:54.714Z,6.41
2019-02-28T06:07:28.696Z,6.47
2019-02-28T06:09:56.712Z,6.44
2019-02-28T06:12:26.845Z,6.40
2019-02-28T06:15:01.951Z,6.39
2019-02-28T06:17:28.795Z,6.44
2019-02-28T06:19:59.714Z,6.44
2019-02-28T06:22:30.824Z,6.48
2019-02-28T06:25:01.979Z,6.47
2019-02-28T06:27:41.108Z,6.40
2019-02-28T06:30:04.057Z,6.45
2019-02-28T06:32:34.244Z,6.43
2019-02-28T06:35:04.990Z,6.45
2019-02-28T06:37:38.397Z,6.50
2019-02-28T06:40:09.392Z,6.50
2019-02-28T06:42:43.594Z,6.51
2019-02-28T06:45:16.733Z,6.49
2019-02-28T06:47:50.948Z,6.51
2019-02-28T06:50:21.184Z,6.48
2019-02-28T06:52:51.884Z,6.58
2019-02-28T06:55:25.733Z,6.59
2019-02-28T06:57:58.859Z,6.57
2019-02-28T07:00:30.640Z,6.62
2019-02-28T07:03:03.413Z,6.67
2019-02-28T07:05:32.538Z,6.68
2019-02-28T07:08:02.658Z,6.74
2019-02-28T07:10:33.265Z,6.71
2019-02-28T07:13:05.732Z,6.70
2019-02-28T07:15:39.063Z,6.70
2019-02-28T07:18:09.726Z,6.72
2019-02-28T07:20:39.831Z,6.80
2019-02-28T07:23:10.078Z,6.79
2019-02-28T07:25:40.169Z,6.84
2019-02-28T07:28:10.285Z,6.86
2019-02-28T07:30:40.378Z,6.91
2019-02-28T07:33:10.905Z,6.91
2019-02-28T07:35:47.577Z,6.88
2019-02-28T07:38:20.430Z,6.92
2019-02-28T07:40:50.729Z,6.97
2019-02-28T07:43:20.931Z,6.99
2019-02-28T07:45:54.054Z,7.02
2019-02-28T07:48:30.059Z,7.01
2019-02-28T07:51:02.109Z,7.04
2019-02-28T07:53:35.522Z,7.14
2019-02-28T07:56:07.774Z,7.14
2019-02-28T07:58:38.059Z,7.09
2019-02-28T08:01:11.138Z,7.23
2019-02-28T08:03:43.712Z,7.22
2019-02-28T08:06:15.002Z,7.24
2019-02-28T08:08:45.147Z,7.28
2019-02-28T08:11:15.268Z,7.30
2019-02-28T08:13:51.776Z,7.33
2019-02-28T08:16:24.865Z,7.37
2019-02-28T08:18:54.993Z,7.38
2019-02-28T08:21:27.890Z,7.50
2019-02-28T08:23:58.029Z,7.59
2019-02-28T08:26:28.127Z,7.62
2019-02-28T08:29:01.737Z,7.70
2019-02-28T08:31:35.355Z,7.79
2019-02-28T08:34:05.777Z,7.79
2019-02-28T08:36:36.026Z,7.81
2019-02-28T08:39:17.258Z,7.91
2019-02-28T08:41:49.541Z,8.04
2019-02-28T08:44:22.777Z,8.09
2019-02-28T08:46:51.667Z,8.08
2019-02-28T08:49:24.865Z,8.15
2019-02-28T08:51:56.981Z,8.22
2019-02-28T08:54:27.562Z,8.18
2019-02-28T08:56:58.881Z,8.30
2019-02-28T08:59:32.740Z,8.33
2019-02-28T09:02:02.824Z,8.43
2019-02-28T09:04:44.882Z,8.47
2019-02-28T09:07:15.232Z,8.50
2019-02-28T09:09:48.042Z,8.33
2019-02-28T09:12:18.157Z,8.40
2019-02-28T09:14:51.928Z,8.28
2019-02-28T09:17:26.387Z,8.30
2019-02-28T09:19:56.560Z,8.41
2019-02-28T09:22:30.935Z,8.56
2019-02-28T09:25:01.183Z,8.64
2019-02-28T09:27:31.798Z,8.80
2019-02-28T09:30:01.986Z,8.81
2019-02-28T09:32:33.762Z,8.72
2019-02-28T09:35:06.396Z,8.84
2019-02-28T09:37:36.109Z,8.85
2019-02-28T09:40:07.538Z,8.83
2019-02-28T09:42:37.679Z,8.98
2019-02-28T09:45:10.520Z,8.99
2019-02-28T09:47:40.722Z,9.04
2019-02-28T09:50:15.280Z,9.15
2019-02-28T09:52:47.788Z,9.28
2019-02-28T09:55:21.288Z,9.34
2019-02-28T09:57:54.675Z,9.30
2019-02-28T10:00:23.533Z,9.35
2019-02-28T10:02:53.700Z,9.41
2019-02-28T10:05:23.989Z,9.35
2019-02-28T10:07:54.227Z,9.38
2019-02-28T10:10:24.488Z,9.42
2019-02-28T10:12:56.791Z,9.54
2019-02-28T10:15:26.596Z,9.57
2019-02-28T10:17:56.711Z,9.71
2019-02-28T10:20:28.509Z,9.72
2019-02-28T10:22:59.028Z,9.83
2019-02-28T10:25:29.198Z,9.89
2019-02-28T10:28:02.677Z,9.93
2019-02-28T10:30:32.599Z,10.08
2019-02-28T10:33:02.928Z,10.13
2019-02-28T10:35:33.547Z,10.19
2019-02-28T10:38:05.753Z,10.23
2019-02-28T10:40:40.147Z,10.30
2019-02-28T10:43:12.173Z,10.16
2019-02-28T10:45:42.899Z,10.27
2019-02-28T10:48:13.426Z,10.33
2019-02-28T10:50:46.072Z,10.52
2019-02-28T10:53:19.318Z,10.57
2019-02-28T10:55:54.451Z,10.57
2019-02-28T10:58:26.704Z,10.69
2019-02-28T11:00:57.198Z,10.79
2019-02-28T11:03:31.764Z,10.93
2019-02-28T11:06:02.857Z,10.99
2019-02-28T11:08:34.608Z,10.97
2019-02-28T11:11:11.409Z,11.03
2019-02-28T11:14:06.704Z,11.16
2019-02-28T11:16:24.468Z,11.17
2019-02-28T11:18:57.883Z,11.27
2019-02-28T11:21:29.750Z,11.24
2019-02-28T11:24:01.259Z,11.37
2019-02-28T11:26:33.940Z,11.42
2019-02-28T11:29:11.511Z,11.49
2019-02-28T11:31:42.251Z,11.44
2019-02-28T11:34:15.003Z,11.28
2019-02-28T11:36:45.347Z,11.37
2019-02-28T11:39:23.299Z,11.50
2019-02-28T11:41:55.158Z,11.77
2019-02-28T11:44:25.545Z,11.90
2019-02-28T11:46:56.713Z,11.96
2019-02-28T11:49:28.660Z,11.98
2019-02-28T11:52:06.025Z,11.84
2019-02-28T11:54:36.388Z,11.92
2019-02-28T11:57:07.041Z,12.13
2019-02-28T11:59:37.357Z,12.16
2019-02-28T12:02:08.262Z,12.18
2019-02-28T12:04:40.540Z,12.26
2019-02-28T12:07:10.983Z,12.15
2019-02-28T12:09:44.301Z,12.23
2019-02-28T12:12:14.219Z,12.37
2019-02-28T12:14:44.421Z,12.31
2019-02-28T12:17:18.029Z,12.06
2019-02-28T12:19:50.711Z,12.17
2019-02-28T12:22:21.235Z,12.26
2019-02-28T12:24:51.425Z,12.33
2019-02-28T12:27:24.415Z,12.24
2019-02-28T12:29:55.904Z,12.34
2019-02-28T12:32:26.630Z,12.29
2019-02-28T12:35:01.293Z,12.27
2019-02-28T12:37:44.594Z,12.23
2019-02-28T12:40:22.004Z,12.23
2019-02-28T12:42:53.994Z,12.09
2019-02-28T12:45:35.218Z,12.02
2019-02-28T12:48:07.261Z,11.97
2019-02-28T12:50:39.136Z,11.92
2019-02-28T12:53:32.593Z,11.90
2019-02-28T12:56:06.221Z,11.82
2019-02-28T12:58:39.005Z,11.76
2019-02-28T13:01:13.245Z,11.80
2019-02-28T13:03:46.717Z,11.76
2019-02-28T13:06:23.681Z,11.85
2019-02-28T13:08:53.916Z,11.90
2019-02-28T13:11:26.945Z,12.04
2019-02-28T13:14:09.142Z,12.14
2019-02-28T13:16:39.745Z,12.05
2019-02-28T13:19:10.820Z,11.98
2019-02-28T13:21:43.590Z,12.08
2019-02-28T13:24:15.067Z,12.12
2019-02-28T13:26:45.392Z,12.12
2019-02-28T13:29:18.581Z,12.01
2019-02-28T13:31:48.901Z,12.12
2019-02-28T13:34:24.885Z,12.04
2019-02-28T13:37:00.555Z,12.15
2019-02-28T13:39:27.412Z,12.47
2019-02-28T13:42:02.986Z,12.60
2019-02-28T13:44:36.437Z,12.43
2019-02-28T13:47:09.803Z,12.30
2019-02-28T13:49:38.673Z,12.33
2019-02-28T13:52:08.808Z,12.26
2019-02-28T13:54:42.109Z,12.24
2019-02-28T13:57:11.292Z,12.19
2019-02-28T13:59:41.508Z,12.14
2019-02-28T14:02:13.684Z,12.32
2019-02-28T14:04:43.976Z,12.30
2019-02-28T14:07:15.190Z,12.39
2019-02-28T14:09:45.341Z,12.38
2019-02-28T14:12:17.006Z,12.29
2019-02-28T14:14:51.541Z,12.26
2019-02-28T14:17:21.663Z,12.30
2019-02-28T14:19:52.692Z,12.30
2019-02-28T14:22:23.680Z,12.42
2019-02-28T14:24:53.940Z,12.51
2019-02-28T14:27:25.305Z,12.42
2019-02-28T14:29:56.054Z,12.33
2019-02-28T14:32:26.296Z,12.35
2019-02-28T14:34:59.977Z,12.27
2019-02-28T14:37:30.126Z,12.30
2019-02-28T14:40:00.800Z,12.38
2019-02-28T14:42:32.290Z,12.31
2019-02-28T14:45:04.056Z,12.20
2019-02-28T14:47:34.344Z,12.06
2019-02-28T14:50:07.051Z,12.03
2019-02-28T14:52:39.393Z,12.04
2019-02-28T14:55:14.406Z,12.05
2019-02-28T14:57:45.010Z,12.03
2019-02-28T15:00:17.346Z,11.88
2019-02-28T15:02:47.805Z,11.87
2019-02-28T15:05:21.608Z,11.82
2019-02-28T15:07:52.380Z,11.81
2019-02-28T15:10:53.328Z,11.65
2019-02-28T15:13:25.255Z,11.70
2019-02-28T15:15:58.487Z,11.70
2019-02-28T15:18:31.662Z,11.69
2019-02-28T15:21:04.448Z,11.59
2019-02-28T15:23:35.453Z,11.60
2019-02-28T15:26:09.852Z,11.51
2019-02-28T15:28:45.484Z,11.52
2019-02-28T15:31:15.683Z,11.54
2019-02-28T15:33:45.782Z,11.56
2019-02-28T15:36:24.288Z,11.42
2019-02-28T15:38:58.865Z,11.35
2019-02-28T15:41:30.631Z,11.42
2019-02-28T15:44:09.380Z,11.32
2019-02-28T15:46:43.843Z,11.30
2019-02-28T15:49:13.096Z,11.26
2019-02-28T15:51:43.339Z,11.27
2019-02-28T15:54:13.669Z,11.23
2019-02-28T15:56:51.820Z,11.15
2019-02-28T15:59:38.899Z,11.14
2019-02-28T16:02:10.429Z,11.02
2019-02-28T16:04:40.861Z,11.01
2019-02-28T16:07:11.250Z,11.06
2019-02-28T16:09:41.650Z,11.09
2019-02-28T16:12:15.185Z,11.05
2019-02-28T16:14:45.843Z,11.04
2019-02-28T16:17:17.179Z,10.99
2019-02-28T16:19:47.338Z,11.05
2019-02-28T16:22:19.115Z,10.97
2019-02-28T16:24:53.721Z,10.84
2019-02-28T16:27:23.991Z,10.80
2019-02-28T16:29:57.272Z,10.83
2019-02-28T16:32:36.216Z,10.75
2019-02-28T16:35:14.595Z,10.71
2019-02-28T16:37:48.832Z,10.76
2019-02-28T16:40:27.151Z,10.66
2019-02-28T16:42:59.630Z,10.59
2019-02-28T16:45:37.439Z,10.58
2019-02-28T16:48:09.508Z,10.55
2019-02-28T16:50:39.990Z,10.58
2019-02-28T16:53:14.771Z,10.54
2019-02-28T16:55:42.204Z,10.50
2019-02-28T16:58:12.496Z,10.43
2019-02-28T17:00:46.333Z,10.41
2019-02-28T17:03:20.866Z,10.26
2019-02-28T17:05:52.579Z,10.22
2019-02-28T17:08:23.331Z,10.23
2019-02-28T17:10:55.880Z,10.17
2019-02-28T17:13:35.604Z,10.15
2019-02-28T17:16:28.391Z,10.11
2019-02-28T17:18:58.819Z,10.10
2019-02-28T17:21:37.819Z,10.09
2019-02-28T17:24:08.705Z,10.00
2019-02-28T17:26:55.478Z,10.05
2019-02-28T17:29:36.382Z,10.01
2019-02-28T17:32:06.881Z,9.91
2019-02-28T17:34:39.970Z,9.88
2019-02-28T17:37:11.327Z,9.90
2019-02-28T17:39:42.361Z,9.86
2019-02-28T17:42:15.204Z,9.85
2019-02-28T17:45:10.549Z,9.90
2019-02-28T17:48:26.168Z,9.88
2019-02-28T17:51:22.310Z,9.81
2019-02-28T17:54:48.498Z,9.80
2019-02-28T17:58:05.895Z,9.89
2019-02-28T18:01:19.953Z,9.92
2019-02-28T18:04:29.583Z,9.98
2019-02-28T18:07:34.416Z,10.06
2019-02-28T18:10:50.982Z,10.05
2019-02-28T18:13:30.705Z,10.08
2019-02-28T18:16:54.607Z,10.01
2019-02-28T18:19:51.083Z,10.01
2019-02-28T18:22:56.631Z,9.99
2019-02-28T18:25:40.719Z,9.98
2019-02-28T18:29:06.155Z,9.97
2019-02-28T18:31:36.452Z,9.90
2019-02-28T18:34:12.973Z,9.89
2019-02-28T18:36:44.230Z,9.94
2019-02-28T18:39:15.273Z,10.00
2019-02-28T18:41:46.855Z,10.01
2019-02-28T18:44:25.081Z,10.09
2019-02-28T18:46:55.448Z,10.13
2019-02-28T18:49:30.153Z,10.21
2019-02-28T18:52:04.067Z,10.21
2019-02-28T18:54:35.871Z,10.18
2019-02-28T18:57:09.883Z,10.13
2019-02-28T18:59:47.154Z,10.14
2019-02-28T19:02:21.209Z,10.20
2019-02-28T19:04:53.758Z,10.28
2019-02-28T19:07:26.120Z,10.32
2019-02-28T19:10:00.318Z,10.31
2019-02-28T19:12:37.188Z,10.27
2019-02-28T19:15:22.561Z,10.27
2019-02-28T19:17:58.623Z,10.31
2019-02-28T19:20:30.549Z,10.33
2019-02-28T19:23:00.836Z,10.33
2019-02-28T19:25:31.455Z,10.26
2019-02-28T19:28:07.311Z,10.21
2019-02-28T19:30:37.623Z,10.19
2019-02-28T19:33:08.003Z,10.12
2019-02-28T19:35:38.281Z,10.14
2019-02-28T19:38:20.347Z,10.12
2019-02-28T19:41:03.105Z,10.13
2019-02-28T19:43:34.116Z,10.22
2019-02-28T19:46:17.977Z,10.26
2019-02-28T19:49:01.762Z,10.29
2019-02-28T19:51:35.721Z,10.22
2019-02-28T19:54:11.301Z,10.32
2019-02-28T19:57:06.606Z,10.36
2019-02-28T19:59:37.497Z,10.33
2019-02-28T20:02:10.585Z,10.42
2019-02-28T20:05:04.252Z,10.49
2019-02-28T20:07:36.397Z,10.45
2019-02-28T20:10:09.099Z,10.24
2019-02-28T20:12:43.689Z,10.18
2019-02-28T20:15:17.039Z,10.07
2019-02-28T20:17:52.820Z,9.84
2019-02-28T20:20:24.311Z,9.80
2019-02-28T20:22:54.764Z,9.89
2019-02-28T20:25:27.120Z,9.92
2019-02-28T20:27:58.888Z,9.76
2019-02-28T20:30:31.530Z,9.71
2019-02-28T20:33:06.641Z,9.75
2019-02-28T20:35:37.324Z,9.76
2019-02-28T20:38:08.133Z,9.66
2019-02-28T20:40:38.399Z,9.49
2019-02-28T20:43:09.772Z,9.46
2019-02-28T20:45:40.129Z,9.31
2019-02-28T20:48:10.269Z,9.40
2019-02-28T20:50:41.508Z,9.26
2019-02-28T20:53:18.347Z,9.35
2019-02-28T20:55:58.343Z,9.35
2019-02-28T20:58:42.539Z,9.31
2019-02-28T21:01:13.453Z,9.35
2019-02-28T21:03:46.699Z,9.43
2019-02-28T21:06:17.472Z,9.55
2019-02-28T21:08:47.808Z,9.62
2019-02-28T21:11:18.564Z,9.62
2019-02-28T21:13:49.974Z,9.75
2019-02-28T21:16:20.313Z,9.78
2019-02-28T21:18:50.596Z,9.78
2019-02-28T21:21:20.856Z,9.76
2019-02-28T21:23:53.963Z,9.79
2019-02-28T21:26:24.422Z,9.68
2019-02-28T21:28:54.820Z,9.56
2019-02-28T21:31:25.210Z,9.48
2019-02-28T21:33:57.694Z,9.57
2019-02-28T21:36:28.050Z,9.63
2019-02-28T21:39:02.218Z,9.59
2019-02-28T21:41:34.546Z,9.46
2019-02-28T21:44:06.202Z,9.54
2019-02-28T21:46:36.416Z,9.59
2019-02-28T21:49:08.182Z,9.54
2019-02-28T21:51:38.355Z,9.67
2019-02-28T21:54:08.541Z,9.73
2019-02-28T21:56:38.673Z,9.67
2019-02-28T21:59:08.931Z,9.72
2019-02-28T22:01:40.945Z,9.68
2019-02-28T22:04:11.210Z,9.75
2019-02-28T22:06:41.442Z,9.82
2019-02-28T22:09:11.683Z,9.87
2019-02-28T22:11:43.778Z,9.89
2019-02-28T22:14:15.168Z,9.90
2019-02-28T22:16:45.272Z,9.94
2019-02-28T22:19:15.925Z,9.91
2019-02-28T22:21:46.068Z,9.92
2019-02-28T22:24:16.236Z,9.92
2019-02-28T22:26:48.799Z,9.93
2019-02-28T22:29:19.980Z,9.84
2019-02-28T22:32:10.253Z,9.92
2019-02-28T22:35:04.024Z,9.85
2019-02-28T22:37:35.984Z,9.90
2019-02-28T22:40:06.873Z,9.79
2019-02-28T22:42:37.007Z,9.83
2019-02-28T22:45:07.501Z,9.95
2019-02-28T22:47:37.593Z,10.02
2019-02-28T22:50:07.764Z,10.05
2019-02-28T22:52:39.174Z,10.10
2019-02-28T22:55:09.523Z,10.11
2019-02-28T22:57:40.768Z,10.12
2019-02-28T23:00:19.342Z,10.11
2019-02-28T23:02:51.105Z,10.03
2019-02-28T23:05:22.475Z,10.14
2019-02-28T23:07:53.823Z,10.14
2019-02-28T23:10:25.741Z,10.11
2019-02-28T23:12:56.010Z,10.13
2019-02-28T23:15:26.993Z,10.13
2019-02-28T23:17:57.507Z,10.08
2019-02-28T23:20:27.689Z,10.02
2019-02-28T23:22:57.997Z,10.01
2019-02-28T23:25:28.274Z,10.01
2019-02-28T23:28:10.166Z,10.07
2019-02-28T23:31:37.125Z,10.05
2019-02-28T23:34:15.047Z,10.09
2019-02-28T23:36:45.615Z,10.13
2019-02-28T23:39:16.927Z,10.01
2019-02-28T23:41:47.144Z,10.05
2019-02-28T23:44:17.297Z,9.90
2019-02-28T23:46:47.441Z,9.66
2019-02-28T23:49:17.675Z,9.65
2019-02-28T23:51:47.780Z,9.78
2019-02-28T23:54:17.926Z,9.84
2019-02-28T23:56:49.123Z,9.89
2019-02-28T23:59:19.255Z,9.91
